createdAt,value
2023-03-11T00:02:05.796Z,97950.28
2023-03-11T00:05:10.022Z,97952.44
2023-03-11T00:08:17.708Z,97955.25
2023-03-11T00:11:23.622Z,97949.50
2023-03-11T00:14:27.770Z,97959.34
2023-03-11T00:17:31.225Z,97944.72
2023-03-11T00:20:37.996Z,97959.69
2023-03-11T00:23:40.874Z,97960.19
2023-03-11T00:26:43.458Z,97956.22
2023-03-11T00:29:46.469Z,97966.75
2023-03-11T00:32:51.710Z,97969.72
2023-03-11T00:35:55.546Z,97963.12
2023-03-11T00:38:59.294Z,97958.19
2023-03-11T00:42:04.120Z,97955.41
2023-03-11T00:45:09.256Z,97949.31
2023-03-11T00:48:13.965Z,97962.81
2023-03-11T00:51:17.138Z,97955.09
2023-03-11T00:54:20.134Z,97969.09
2023-03-11T00:57:22.890Z,97963.28
2023-03-11T01:00:27.833Z,97963.97
2023-03-11T01:03:33.148Z,97960.03
2023-03-11T01:06:45.104Z,97946.69
2023-03-11T01:09:48.755Z,97963.31
2023-03-11T01:12:56.890Z,97953.94
2023-03-11T01:15:59.764Z,97959.50
2023-03-11T01:19:05.561Z,97947.00
2023-03-11T01:22:08.389Z,97953.75
2023-03-11T01:25:14.923Z,97952.44
2023-03-11T01:28:17.746Z,97947.81
2023-03-11T01:31:20.977Z,97947.81
2023-03-11T01:34:23.907Z,97947.00
2023-03-11T01:37:27.682Z,97946.50
2023-03-11T01:40:30.432Z,97946.31
2023-03-11T01:43:41.231Z,97948.63
2023-03-11T01:46:54.012Z,97966.37
2023-03-11T01:49:57.601Z,97961.44
2023-03-11T01:53:04.654Z,97955.31
2023-03-11T01:56:07.918Z,97949.22
2023-03-11T01:59:14.284Z,97946.06
2023-03-11T02:02:31.294Z,97943.91
2023-03-11T02:05:35.435Z,97950.78
2023-03-11T02:08:40.956Z,97951.28
2023-03-11T02:11:44.211Z,97945.88
2023-03-11T02:14:51.256Z,97965.97
2023-03-11T02:17:56.447Z,97960.03
2023-03-11T02:21:40.306Z,97964.47
2023-03-11T02:24:54.150Z,97964.25
2023-03-11T02:27:59.486Z,97952.63
2023-03-11T02:31:03.989Z,97952.81
2023-03-11T02:34:13.872Z,97953.50
2023-03-11T02:37:18.443Z,97949.06
2023-03-11T02:40:24.870Z,97957.09
2023-03-11T02:43:37.520Z,97964.00
2023-03-11T02:46:42.711Z,97944.28
2023-03-11T02:49:46.271Z,97944.94
2023-03-11T02:52:50.218Z,97956.63
2023-03-11T02:55:53.081Z,97949.84
2023-03-11T02:58:55.769Z,97963.34
2023-03-11T03:01:58.684Z,97950.50
2023-03-11T03:05:03.927Z,97944.28
2023-03-11T03:08:06.952Z,97937.72
2023-03-11T03:11:09.736Z,97935.75
2023-03-11T03:14:14.824Z,97941.03
2023-03-11T03:17:17.730Z,97948.63
2023-03-11T03:20:22.923Z,97961.13
2023-03-11T03:23:25.970Z,97973.28
2023-03-11T03:26:29.124Z,97969.50
2023-03-11T03:29:33.714Z,97983.50
2023-03-11T03:32:38.909Z,97984.66
2023-03-11T03:35:45.269Z,97983.50
2023-03-11T03:38:51.430Z,97987.25
2023-03-11T03:41:54.254Z,97999.28
2023-03-11T03:44:57.809Z,97998.63
2023-03-11T03:48:00.610Z,98004.84
2023-03-11T03:51:13.413Z,97978.88
2023-03-11T03:54:16.646Z,98000.25
2023-03-11T03:57:20.476Z,98008.28
2023-03-11T04:00:23.820Z,98007.75
2023-03-11T04:03:28.797Z,97994.59
2023-03-11T04:06:32.680Z,98016.94
2023-03-11T04:09:39.784Z,97988.34
2023-03-11T04:12:42.716Z,98033.72
2023-03-11T04:15:45.876Z,98017.25
2023-03-11T04:18:49.099Z,98040.56
2023-03-11T04:21:53.583Z,98044.84
2023-03-11T04:24:59.116Z,98060.38
2023-03-11T04:28:02.757Z,98067.03
2023-03-11T04:31:07.764Z,98065.09
2023-03-11T04:34:13.052Z,98052.91
2023-03-11T04:37:41.577Z,98064.63
2023-03-11T04:41:24.227Z,98065.63
2023-03-11T04:44:27.523Z,98082.63
2023-03-11T04:47:31.032Z,98079.19
2023-03-11T04:50:34.301Z,98081.81
2023-03-11T04:53:37.227Z,98087.13
2023-03-11T04:56:40.050Z,98082.88
2023-03-11T04:59:45.084Z,98063.44
2023-03-11T05:02:47.848Z,98069.28
2023-03-11T05:05:52.936Z,98070.25
2023-03-11T05:08:56.179Z,98088.84
2023-03-11T05:12:01.856Z,98070.41
2023-03-11T05:15:06.856Z,98101.78
2023-03-11T05:18:12.742Z,98111.34
2023-03-11T05:21:16.063Z,98094.59
2023-03-11T05:24:19.636Z,98102.38
2023-03-11T05:27:29.403Z,98097.28
2023-03-11T05:30:33.623Z,98103.53
2023-03-11T05:33:39.509Z,98104.19
2023-03-11T05:36:43.617Z,98140.34
2023-03-11T05:39:47.296Z,98111.97
2023-03-11T05:42:51.794Z,98131.84
2023-03-11T05:45:54.851Z,98113.91
2023-03-11T05:49:01.941Z,98127.75
2023-03-11T05:52:04.932Z,98139.50
2023-03-11T05:55:09.977Z,98132.16
2023-03-11T05:58:15.222Z,98144.44
2023-03-11T06:01:20.781Z,98154.53
2023-03-11T06:04:25.149Z,98145.44
2023-03-11T06:07:28.268Z,98158.94
2023-03-11T06:10:34.674Z,98145.44
2023-03-11T06:13:37.886Z,98150.84
2023-03-11T06:16:41.927Z,98150.56
2023-03-11T06:19:45.473Z,98153.19
2023-03-11T06:22:49.639Z,98180.31
2023-03-11T06:26:05.508Z,98183.62
2023-03-11T06:29:14.317Z,98200.88
2023-03-11T06:32:17.462Z,98207.50
2023-03-11T06:35:21.237Z,98220.59
2023-03-11T06:38:24.167Z,98223.91
2023-03-11T06:41:27.251Z,98227.91
2023-03-11T06:44:30.316Z,98239.87
2023-03-11T06:47:33.860Z,98239.87
2023-03-11T06:50:37.002Z,98216.47
2023-03-11T06:53:42.452Z,98223.22
2023-03-11T06:56:46.473Z,98260.12
2023-03-11T06:59:51.395Z,98239.75
2023-03-11T07:02:54.666Z,98256.44
2023-03-11T07:06:00.302Z,98258.59
2023-03-11T07:09:05.227Z,98262.19
2023-03-11T07:12:09.170Z,98261.88
2023-03-11T07:15:13.358Z,98264.50
2023-03-11T07:18:17.664Z,98268.94
2023-03-11T07:21:23.310Z,98287.47
2023-03-11T07:24:26.206Z,98284.34
2023-03-11T07:27:32.439Z,98274.31
2023-03-11T07:30:35.657Z,98284.25
2023-03-11T07:33:38.616Z,98281.59
2023-03-11T07:36:42.244Z,98299.44
2023-03-11T07:40:11.563Z,98306.16
2023-03-11T07:43:15.199Z,98304.94
2023-03-11T07:46:18.690Z,98300.69
2023-03-11T07:49:22.266Z,98311.47
2023-03-11T07:52:55.250Z,98295.38
2023-03-11T07:56:01.932Z,98292.84
2023-03-11T07:59:45.973Z,98312.44
2023-03-11T08:02:49.200Z,98298.56
2023-03-11T08:05:52.457Z,98312.28
2023-03-11T08:08:55.165Z,98309.44
2023-03-11T08:11:58.195Z,98294.37
2023-03-11T08:15:00.789Z,98301.94
2023-03-11T08:18:05.319Z,98300.75
2023-03-11T08:21:13.671Z,98317.16
2023-03-11T08:24:17.910Z,98325.53
2023-03-11T08:27:20.751Z,98309.41
2023-03-11T08:30:25.389Z,98335.91
2023-03-11T08:33:28.686Z,98316.59
2023-03-11T08:36:32.272Z,98327.72
2023-03-11T08:39:35.079Z,98318.91
2023-03-11T08:42:38.455Z,98307.13
2023-03-11T08:45:42.018Z,98322.59
2023-03-11T08:48:45.009Z,98289.44
2023-03-11T08:51:48.363Z,98281.53
2023-03-11T08:54:51.249Z,98239.31
2023-03-11T08:57:54.283Z,98283.84
2023-03-11T09:00:57.488Z,98298.84
2023-03-11T09:04:00.235Z,98290.88
2023-03-11T09:07:03.246Z,98313.50
2023-03-11T09:10:07.396Z,98283.84
2023-03-11T09:13:10.393Z,98319.00
2023-03-11T09:16:20.795Z,98318.41
2023-03-11T09:19:23.630Z,98321.63
2023-03-11T09:22:26.455Z,98314.81
2023-03-11T09:25:30.300Z,98327.56
2023-03-11T09:28:34.566Z,98320.62
2023-03-11T09:31:38.725Z,98280.00
2023-03-11T09:34:43.335Z,98283.16
2023-03-11T09:37:46.363Z,98265.44
2023-03-11T09:40:54.803Z,98260.03
2023-03-11T09:44:11.143Z,98272.47
2023-03-11T09:47:46.072Z,98236.78
2023-03-11T09:51:01.019Z,98241.66
2023-03-11T09:54:10.107Z,98264.28
2023-03-11T09:57:18.051Z,98273.59
2023-03-11T10:00:23.462Z,98275.06
2023-03-11T10:03:33.923Z,98310.22
2023-03-11T10:06:36.887Z,98307.09
2023-03-11T10:09:53.513Z,98326.53
2023-03-11T10:13:21.227Z,98352.88
2023-03-11T10:16:44.278Z,98339.53
2023-03-11T10:19:54.415Z,98383.09
2023-03-11T10:23:16.568Z,98381.50
2023-03-11T10:26:39.862Z,98399.50
2023-03-11T10:29:52.011Z,98380.63
2023-03-11T10:33:18.983Z,98407.37
2023-03-11T10:36:27.360Z,98405.69
2023-03-11T10:39:32.823Z,98394.84
2023-03-11T10:42:36.982Z,98386.78
2023-03-11T10:45:44.676Z,98393.19
2023-03-11T10:48:47.685Z,98395.25
2023-03-11T10:51:52.611Z,98399.53
2023-03-11T10:55:02.902Z,98420.00
2023-03-11T10:58:13.810Z,98421.34
2023-03-11T11:01:18.716Z,98411.41
2023-03-11T11:04:36.093Z,98413.19
2023-03-11T11:07:41.203Z,98420.38
2023-03-11T11:10:51.764Z,98444.31
2023-03-11T11:14:00.420Z,98436.34
2023-03-11T11:17:08.757Z,98438.37
2023-03-11T11:20:18.156Z,98441.03
2023-03-11T11:23:31.940Z,98435.19
2023-03-11T11:26:34.872Z,98434.28
2023-03-11T11:29:38.901Z,98443.97
2023-03-11T11:32:44.089Z,98406.75
2023-03-11T11:35:53.036Z,98439.81
2023-03-11T11:38:57.098Z,98436.56
2023-03-11T11:42:01.703Z,98392.56
2023-03-11T11:45:15.915Z,98439.69
2023-03-11T11:48:36.019Z,98444.63
2023-03-11T11:51:43.024Z,98438.25
2023-03-11T11:55:01.400Z,98441.91
2023-03-11T11:58:10.229Z,98453.31
2023-03-11T12:01:24.046Z,98447.16
2023-03-11T12:05:03.975Z,98463.97
2023-03-11T12:08:16.084Z,98436.22
2023-03-11T12:11:23.015Z,98459.59
2023-03-11T12:14:43.381Z,98457.59
2023-03-11T12:17:50.560Z,98494.91
2023-03-11T12:20:56.824Z,98487.56
2023-03-11T12:24:10.808Z,98474.97
2023-03-11T12:27:22.178Z,98506.81
2023-03-11T12:30:36.956Z,98511.56
2023-03-11T12:33:48.841Z,98514.44
2023-03-11T12:36:55.701Z,98514.81
2023-03-11T12:39:58.514Z,98523.00
2023-03-11T12:43:01.610Z,98527.00
2023-03-11T12:46:08.388Z,98520.00
2023-03-11T12:49:13.479Z,98523.81
2023-03-11T12:52:24.352Z,98545.00
2023-03-11T12:55:33.185Z,98519.66
2023-03-11T12:58:45.556Z,98534.06
2023-03-11T13:01:58.330Z,98528.38
2023-03-11T13:05:23.990Z,98565.00
2023-03-11T13:08:36.357Z,98586.13
2023-03-11T13:11:45.089Z,98572.31
2023-03-11T13:14:48.124Z,98576.19
2023-03-11T13:18:12.520Z,98571.25
2023-03-11T13:21:27.673Z,98586.34
2023-03-11T13:24:30.555Z,98592.03
2023-03-11T13:27:42.200Z,98585.13
2023-03-11T13:31:10.099Z,98590.41
2023-03-11T13:34:51.249Z,98587.28
2023-03-11T13:38:21.060Z,98587.81
2023-03-11T13:41:36.456Z,98606.25
2023-03-11T13:45:00.555Z,98612.94
2023-03-11T13:48:12.715Z,98599.31
2023-03-11T13:51:27.486Z,98611.25
2023-03-11T13:54:46.729Z,98590.13
2023-03-11T13:57:54.587Z,98609.41
2023-03-11T14:01:02.263Z,98628.97
2023-03-11T14:04:11.527Z,98640.28
2023-03-11T14:07:22.801Z,98655.31
2023-03-11T14:10:29.137Z,98641.75
2023-03-11T14:13:40.113Z,98651.94
2023-03-11T14:16:46.228Z,98684.25
2023-03-11T14:20:28.990Z,98708.72
2023-03-11T14:23:40.620Z,98678.09
2023-03-11T14:26:44.240Z,98693.59
2023-03-11T14:29:48.277Z,98687.50
2023-03-11T14:33:21.828Z,98680.81
2023-03-11T14:36:26.711Z,98676.50
2023-03-11T14:39:33.619Z,98679.47
2023-03-11T14:42:40.705Z,98665.78
2023-03-11T14:45:44.359Z,98676.75
2023-03-11T14:48:51.893Z,98710.88
2023-03-11T14:52:05.666Z,98686.16
2023-03-11T14:55:17.273Z,98728.91
2023-03-11T14:58:26.464Z,98722.25
2023-03-11T15:01:34.435Z,98734.84
2023-03-11T15:04:40.005Z,98755.81
2023-03-11T15:07:44.475Z,98765.50
2023-03-11T15:11:06.426Z,98771.12
2023-03-11T15:14:23.425Z,98795.00
2023-03-11T15:17:38.399Z,98794.06
2023-03-11T15:20:44.655Z,98802.47
2023-03-11T15:23:50.245Z,98784.34
2023-03-11T15:27:04.019Z,98796.91
2023-03-11T15:30:25.252Z,98801.59
2023-03-11T15:33:40.029Z,98803.28
2023-03-11T15:36:57.500Z,98789.03
2023-03-11T15:43:48.490Z,98791.56
2023-03-11T15:46:53.058Z,98800.34
2023-03-11T15:49:55.776Z,98821.06
2023-03-11T15:52:59.410Z,98828.31
2023-03-11T15:56:13.849Z,98829.03
2023-03-11T15:59:18.353Z,98849.03
2023-03-11T16:02:24.663Z,98862.50
2023-03-11T16:05:28.843Z,98866.66
2023-03-11T16:08:31.491Z,98890.69
2023-03-11T16:11:46.243Z,98867.59
2023-03-11T16:14:50.605Z,98875.31
2023-03-11T16:17:55.170Z,98886.13
2023-03-11T16:20:58.234Z,98872.00
2023-03-11T16:24:01.535Z,98881.03
2023-03-11T16:27:04.295Z,98889.78
2023-03-11T16:30:12.326Z,98896.91
2023-03-11T16:33:15.631Z,98893.09
2023-03-11T16:36:18.635Z,98894.16
2023-03-11T16:39:21.827Z,98904.81
2023-03-11T16:42:25.364Z,98918.75
2023-03-11T16:45:28.623Z,98937.75
2023-03-11T16:48:32.880Z,98935.75
2023-03-11T16:51:35.861Z,98941.31
2023-03-11T16:54:38.779Z,98938.69
2023-03-11T16:57:41.589Z,98960.06
2023-03-11T17:00:45.232Z,98960.41
2023-03-11T17:03:52.218Z,98968.09
2023-03-11T17:06:55.516Z,98963.31
2023-03-11T17:09:59.624Z,98965.22
2023-03-11T17:13:02.967Z,98966.66
2023-03-11T17:16:06.781Z,98976.28
2023-03-11T17:19:09.670Z,98991.06
2023-03-11T17:22:12.773Z,99006.81
2023-03-11T17:25:18.066Z,98995.72
2023-03-11T17:28:20.749Z,99019.47
2023-03-11T17:31:25.286Z,99007.00
2023-03-11T17:34:28.698Z,99024.06
2023-03-11T17:37:31.908Z,99030.03
2023-03-11T17:40:35.264Z,99034.94
2023-03-11T17:43:39.512Z,99034.03
2023-03-11T17:46:42.502Z,99047.94
2023-03-11T17:49:45.779Z,99047.72
2023-03-11T17:52:49.096Z,99051.59
2023-03-11T17:55:52.267Z,99078.63
2023-03-11T17:58:58.642Z,99065.69
2023-03-11T18:02:02.096Z,99086.78
2023-03-11T18:05:06.683Z,99078.00
2023-03-11T18:08:09.454Z,99091.69
2023-03-11T18:11:18.981Z,99104.31
2023-03-11T18:14:22.695Z,99100.56
2023-03-11T18:17:25.709Z,99093.13
2023-03-11T18:20:29.234Z,99092.41
2023-03-11T18:23:34.196Z,99101.91
2023-03-11T18:26:37.093Z,99096.56
2023-03-11T18:29:40.421Z,99096.88
2023-03-11T18:32:43.913Z,99102.31
2023-03-11T18:35:47.240Z,99105.53
2023-03-11T18:38:52.945Z,99121.44
2023-03-11T18:41:55.963Z,99123.09
2023-03-11T18:45:00.064Z,99134.56
2023-03-11T18:48:03.272Z,99125.41
2023-03-11T18:51:08.394Z,99126.44
2023-03-11T18:54:11.596Z,99136.56
2023-03-11T18:57:15.967Z,99148.34
2023-03-11T19:00:23.463Z,99149.19
2023-03-11T19:03:26.233Z,99146.69
2023-03-11T19:06:29.491Z,99173.22
2023-03-11T19:09:32.684Z,99157.13
2023-03-11T19:12:37.142Z,99157.84
2023-03-11T19:15:41.527Z,99177.13
2023-03-11T19:18:46.697Z,99168.56
2023-03-11T19:21:49.680Z,99175.25
2023-03-11T19:24:56.120Z,99189.59
2023-03-11T19:27:58.927Z,99180.16
2023-03-11T19:31:02.896Z,99172.25
2023-03-11T19:34:05.861Z,99168.44
2023-03-11T19:37:11.076Z,99187.19
2023-03-11T19:40:15.808Z,99172.34
2023-03-11T19:43:19.429Z,99184.75
2023-03-11T19:46:23.484Z,99192.13
2023-03-11T19:49:32.027Z,99195.00
2023-03-11T19:52:36.119Z,99204.44
2023-03-11T19:55:44.059Z,99200.16
2023-03-11T19:58:46.958Z,99192.72
2023-03-11T20:01:52.941Z,99193.66
2023-03-11T20:04:58.497Z,99193.66
2023-03-11T20:08:03.995Z,99202.41
2023-03-11T20:11:16.244Z,99181.00
2023-03-11T20:14:19.255Z,99169.19
2023-03-11T20:17:23.338Z,99167.97
2023-03-11T20:20:51.338Z,99171.13
2023-03-11T20:23:56.014Z,99187.31
2023-03-11T20:26:59.074Z,99192.91
2023-03-11T20:30:03.665Z,99189.66
2023-03-11T20:33:08.053Z,99208.91
2023-03-11T20:36:13.523Z,99197.38
2023-03-11T20:39:17.253Z,99201.81
2023-03-11T20:42:23.188Z,99216.44
2023-03-11T20:45:28.418Z,99226.38
2023-03-11T20:48:31.602Z,99239.66
2023-03-11T20:51:34.778Z,99239.41
2023-03-11T20:54:37.869Z,99235.06
2023-03-11T20:57:41.455Z,99236.94
2023-03-11T21:00:46.511Z,99217.88
2023-03-11T21:03:52.678Z,99225.78
2023-03-11T21:06:58.947Z,99219.59
2023-03-11T21:10:04.012Z,99214.28
2023-03-11T21:13:07.727Z,99222.53
2023-03-11T21:16:13.211Z,99233.22
2023-03-11T21:19:16.577Z,99239.06
2023-03-11T21:22:19.434Z,99252.53
2023-03-11T21:25:22.749Z,99279.91
2023-03-11T21:28:26.567Z,99283.84
2023-03-11T21:31:32.674Z,99298.47
2023-03-11T21:34:35.289Z,99285.47
2023-03-11T21:37:38.604Z,99298.53
2023-03-11T21:40:42.090Z,99279.41
2023-03-11T21:44:11.378Z,99264.19
2023-03-11T21:47:15.653Z,99270.84
2023-03-11T21:50:21.753Z,99282.91
2023-03-11T21:53:24.658Z,99292.16
2023-03-11T21:56:28.743Z,99301.47
2023-03-11T21:59:31.531Z,99303.31
2023-03-11T22:02:34.815Z,99294.66
2023-03-11T22:05:39.374Z,99296.47
2023-03-11T22:08:43.467Z,99309.28
2023-03-11T22:11:46.497Z,99314.37
2023-03-11T22:14:49.294Z,99315.34
2023-03-11T22:17:52.522Z,99315.66
2023-03-11T22:20:59.456Z,99321.44
2023-03-11T22:24:02.555Z,99318.03
2023-03-11T22:27:05.140Z,99331.03
2023-03-11T22:30:10.625Z,99331.19
2023-03-11T22:33:13.330Z,99343.00
2023-03-11T22:36:16.276Z,99356.22
2023-03-11T22:39:18.837Z,99368.03
2023-03-11T22:42:21.832Z,99362.56
2023-03-11T22:45:24.515Z,99369.63
2023-03-11T22:48:29.262Z,99370.06
2023-03-11T22:51:35.596Z,99379.12
2023-03-11T22:54:38.789Z,99386.16
2023-03-11T22:57:41.370Z,99387.84
2023-03-11T23:00:44.660Z,99387.72
2023-03-11T23:03:48.290Z,99396.53
2023-03-11T23:06:54.535Z,99407.47
2023-03-11T23:09:57.259Z,99392.50
2023-03-11T23:13:00.300Z,99402.00
2023-03-11T23:16:08.511Z,99395.53
2023-03-11T23:19:12.821Z,99395.56
2023-03-11T23:22:15.564Z,99397.84
2023-03-11T23:25:22.286Z,99417.47
2023-03-11T23:28:30.431Z,99417.62
2023-03-11T23:31:33.540Z,99431.00
2023-03-11T23:34:37.881Z,99443.69
2023-03-11T23:37:41.003Z,99443.66
2023-03-11T23:40:43.786Z,99444.87
2023-03-11T23:43:47.543Z,99452.34
2023-03-11T23:46:52.874Z,99453.50
2023-03-11T23:49:56.356Z,99460.53
2023-03-11T23:56:18.855Z,99467.81
2023-03-11T23:59:23.970Z,99483.00
